Latest Weather Observations for Willis Island

IDQ60801

Issued at 1:03 pm EST Saturday 25 June 2016 (issued every 30 minutes, with the page automatically refreshed every 10 minutes)

About weather observations | Map of weather stations | Latest weather observations for QLD | Other Formats
Station Details ID: 200283 Name: WILLIS ISLAND Lat: -16.29 Lon: 149.97 Height: 9.29 m
Data from the previous 72 hours. | See also: Recent months at Willis Island
Date/Time
EST
Temp
°C
App
Temp
°C
Dew
Point
°C
Rel
Hum
%
Delta-T
°C
Wind Press
QNH
hPa
Press
MSL
hPa
Rain since
9am
mm
Dir  Spd
km/h
Gust
km/h
Spd
kts
Gust
kts
25/01:00pm 27.6 27.1 21.4 69 4.1 ESE 26 30 14 16 1014.1 1014.0 0.0
25/12:30pm 27.7 27.7 21.6 69 4.1 ESE 24 28 13 15 1014.6 1014.5 0.0
25/12:00pm 27.9 27.6 21.9 70 4.0 ESE 26 30 14 16 1014.9 1014.8 0.0
25/11:30am 27.9 27.7 22.1 70 3.9 ESE 26 30 14 16 1015.1 1015.0 0.0
25/11:00am 27.6 26.8 21.6 70 4.0 ESE 28 32 15 17 1015.2 1015.1 0.0
25/10:30am 27.5 27.1 21.7 70 3.9 ESE 26 32 14 17 1015.4 1015.3 0.0
25/10:00am 27.7 27.7 22.4 73 3.6 ESE 26 32 14 17 1015.5 1015.4 0.0
25/09:30am 27.0 26.3 21.8 73 3.5 ESE 28 33 15 18 1015.5 1015.4 0.0
25/09:00am 26.9 25.8 21.7 73 3.5 ESE 30 35 16 19 1015.4 1015.3 0.0
25/08:30am 26.5 25.3 21.5 74 3.3 ESE 30 32 16 17 1015.2 1015.1 0.0
25/08:00am 25.9 24.6 21.4 76 3.0 ESE 30 35 16 19 1014.9 1014.8 0.0
25/07:30am 25.7 24.4 21.3 76 2.9 ESE 30 35 16 19 1014.6 1014.5 0.0
25/07:00am 25.4 24.2 21.6 79 2.5 ESE 30 32 16 17 1014.4 1014.3 0.0
25/06:30am 25.2 24.3 21.4 79 2.5 ESE 28 32 15 17 1014.1 1014.0 0.0
25/06:00am 25.2 24.9 21.9 82 2.2 ESE 26 32 14 17 1014.0 1013.9 0.0
25/05:30am 25.2 23.9 21.4 79 2.5 ESE 30 33 16 18 1013.7 1013.6 0.0
25/05:00am 25.2 24.6 21.9 82 2.2 ESE 28 33 15 18 1013.5 1013.4 0.0
25/04:30am 25.1 23.9 21.6 81 2.3 SE 30 33 16 18 1013.5 1013.4 0.0
25/04:00am 25.1 24.4 21.8 82 2.2 ESE 28 32 15 17 1013.3 1013.2 0.0
25/03:30am 25.1 24.6 22.1 83 2.0 ESE 28 33 15 18 1013.3 1013.2 0.0
25/03:00am 25.1 24.7 22.3 84 1.9 ESE 28 32 15 17 1013.1 1013.0 0.0
25/02:30am 25.1 24.6 22.1 83 2.0 ESE 28 33 15 18 1013.3 1013.2 0.0
25/02:00am 25.1 25.3 22.0 83 2.1 ESE 24 30 13 16 1013.5 1013.4 0.0
25/01:30am 25.1 25.3 22.1 83 2.0 SE 24 28 13 15 1013.9 1013.8 0.0
25/01:00am 25.2 25.0 22.1 83 2.1 SE 26 30 14 16 1014.1 1014.0 0.0
25/12:30am 25.1 24.9 22.1 83 2.0 SE 26 30 14 16 1014.3 1014.2 0.0
25/12:00am 25.2 24.6 21.9 82 2.2 SE 28 30 15 16 1014.6 1014.5 0.0
 
Date/Time
EST
Temp
°C
App
Temp
°C
Dew
Point
°C
Rel
Hum
%
Delta-T
°C
Wind Press
QNH
hPa
Press
MSL
hPa
Rain since
9am
mm
Dir  Spd
km/h
Gust
km/h
Spd
kts
Gust
kts
24/11:30pm 25.2 25.0 22.1 83 2.1 SSE 26 30 14 16 1014.8 1014.7 0.0
24/11:00pm 25.4 24.9 22.1 82 2.2 SSE 28 33 15 18 1014.9 1014.8 0.0
24/10:30pm 25.6 25.4 22.0 80 2.4 SSE 26 32 14 17 1015.0 1014.9 0.0
24/10:00pm 25.4 25.5 21.8 80 2.4 SSE 24 26 13 14 1015.0 1014.9 0.0
24/09:30pm 25.4 26.1 22.3 83 2.1 SSE 22 28 12 15 1014.9 1014.8 0.0
24/09:00pm 25.3 26.0 22.2 83 2.1 SSE 22 24 12 13 1014.7 1014.6 0.0
24/08:30pm 25.3 26.3 22.2 83 2.1 SE 20 24 11 13 1014.5 1014.4 0.0
24/08:00pm 25.2 26.3 21.9 82 2.2 SE 19 20 10 11 1014.1 1014.0 0.0
24/07:30pm 25.3 26.3 21.7 80 2.4 SE 19 24 10 13 1013.9 1013.8 0.0
24/07:00pm 25.4 26.6 22.1 82 2.2 SE 19 20 10 11 1013.6 1013.5 0.0
24/06:30pm 25.4 26.5 22.0 81 2.3 ESE 19 20 10 11 1013.3 1013.2 0.0
24/06:00pm 25.4 26.6 22.1 82 2.2 ESE 19 20 10 11 1013.0 1012.9 0.0
24/05:30pm 25.5 26.5 22.1 81 2.3 ESE 20 24 11 13 1012.6 1012.5 0.0
24/05:00pm 26.0 27.1 22.4 80 2.4 ESE 20 22 11 12 1012.4 1012.3 0.0
24/04:30pm 26.4 27.4 22.2 78 2.8 ESE 20 24 11 13 1012.2 1012.1 0.0
24/04:00pm 26.8 27.7 22.0 75 3.2 ESE 20 24 11 13 1011.9 1011.8 0.0
24/03:30pm 27.3 28.2 22.7 76 3.1 ESE 22 24 12 13 1011.8 1011.7 0.0
24/03:00pm 27.3 27.8 22.7 76 3.1 E 24 28 13 15 1011.7 1011.6 0.0
24/02:30pm 27.7 28.8 23.0 75 3.2 ESE 22 26 12 14 1012.0 1011.9 0.0
24/02:00pm 27.2 28.0 22.5 75 3.2 ESE 22 26 12 14 1012.3 1012.2 0.0
24/01:30pm 27.7 29.0 22.7 74 3.4 E 20 24 11 13 1012.5 1012.4 0.0
24/01:00pm 27.7 28.1 22.5 73 3.5 E 24 26 13 14 1012.9 1012.8 0.0
24/12:30pm 28.3 29.9 23.3 74 3.4 ESE 20 24 11 13 1013.2 1013.1 0.0
24/12:00pm 27.8 28.9 23.0 75 3.3 ESE 22 26 12 14 1013.6 1013.5 0.0
24/11:30am 27.7 28.7 22.8 74 3.3 ESE 22 26 12 14 1013.9 1013.8 0.0
24/11:00am 28.2 28.8 22.8 72 3.7 ESE 24 26 13 14 1014.1 1014.0 0.0
24/10:30am 27.8 28.1 22.3 72 3.7 ESE 24 26 13 14 1014.3 1014.2 0.0
24/10:00am 27.8 29.2 22.8 74 3.4 ESE 20 24 11 13 1014.6 1014.5 0.0
24/09:30am 27.6 28.3 22.3 73 3.6 ESE 22 26 12 14 1014.8 1014.7 0.0
24/09:00am 27.1 27.8 22.2 74 3.3 ESE 22 24 12 13 1014.8 1014.7 0.2
24/08:30am 27.0 28.3 22.6 77 3.0 E 20 24 11 13 1014.7 1014.6 0.2
24/08:00am 26.4 27.2 22.4 78 2.7 E 22 24 12 13 1014.4 1014.3 0.2
24/07:30am 25.8 27.0 22.2 80 2.4 ESE 19 20 10 11 1014.2 1014.1 0.2
24/07:00am 25.5 26.8 22.4 83 2.1 ESE 19 22 10 12 1013.8 1013.7 0.2
24/06:30am 25.3 26.2 22.0 82 2.2 ESE 20 22 11 12 1013.3 1013.2 0.2
24/06:00am 25.2 26.1 21.9 82 2.2 ESE 20 24 11 13 1013.0 1012.9 0.2
24/05:30am 25.3 26.0 22.3 83 2.0 ESE 22 26 12 14 1012.6 1012.5 0.2
24/05:00am 25.3 26.0 22.3 83 2.0 ESE 22 24 12 13 1012.3 1012.2 0.2
24/04:30am 25.2 26.4 22.5 85 1.8 SE 20 24 11 13 1012.2 1012.1 0.2
24/04:00am 25.3 26.2 22.0 82 2.2 SE 20 22 11 12 1012.1 1012.0 0.2
24/03:30am 25.3 27.0 22.3 83 2.0 ESE 17 20 9 11 1012.0 1011.9 0.2
24/03:00am 25.3 26.8 22.0 82 2.2 ESE 17 20 9 11 1012.2 1012.1 0.2
24/02:30am 25.4 27.3 22.0 81 2.3 ESE 15 19 8 10 1012.3 1012.2 0.2
24/02:00am 25.5 27.2 22.4 83 2.1 E 17 20 9 11 1012.5 1012.4 0.2
24/01:30am 25.5 26.5 22.1 81 2.3 E 20 22 11 12 1012.5 1012.4 0.2
24/01:00am 25.6 26.8 22.5 83 2.1 E 20 22 11 12 1012.6 1012.5 0.2
24/12:30am 25.6 26.4 22.5 83 2.1 E 22 24 12 13 1012.7 1012.6 0.2
24/12:00am 25.7 26.6 22.7 83 2.0 ENE 22 26 12 14 1012.7 1012.6 0.2
 
Date/Time
EST
Temp
°C
App
Temp
°C
Dew
Point
°C
Rel
Hum
%
Delta-T
°C
Wind Press
QNH
hPa
Press
MSL
hPa
Rain since
9am
mm
Dir  Spd
km/h
Gust
km/h
Spd
kts
Gust
kts
23/11:30pm 25.8 26.4 22.8 83 2.0 ENE 24 28 13 15 1012.8 1012.7 0.2
23/11:00pm 25.9 25.6 22.6 82 2.2 ENE 28 32 15 17 1012.9 1012.8 0.2
23/10:30pm 25.9 26.0 22.5 81 2.3 ENE 26 30 14 16 1013.1 1013.0 0.2
23/10:00pm 26.0 26.3 22.9 83 2.1 ENE 26 32 14 17 1013.2 1013.1 0.2
23/09:30pm 26.0 25.8 22.7 82 2.2 ENE 28 32 15 17 1013.3 1013.2 0.2
23/09:00pm 25.9 25.2 22.5 81 2.3 ENE 30 33 16 18 1013.1 1013.0 0.2
23/08:30pm 26.0 25.4 22.7 82 2.2 ENE 30 35 16 19 1013.0 1012.9 0.2
23/08:00pm 26.0 25.9 22.9 83 2.1 E 28 32 15 17 1012.7 1012.6 0.2
23/07:30pm 26.0 25.9 22.9 83 2.1 E 28 32 15 17 1012.6 1012.5 0.2
23/07:00pm 26.0 25.7 22.6 81 2.3 E 28 32 15 17 1012.3 1012.2 0.2
23/06:30pm 26.0 25.4 22.7 82 2.2 E 30 33 16 18 1012.1 1012.0 0.2
23/06:00pm 26.2 25.9 22.6 80 2.4 E 28 32 15 17 1011.9 1011.8 0.2
23/05:30pm 26.3 25.8 22.9 81 2.3 E 30 33 16 18 1011.7 1011.6 0.2
23/05:00pm 26.4 25.3 22.5 79 2.6 E 32 35 17 19 1011.3 1011.2 0.2
23/04:30pm 26.6 26.0 22.6 78 2.7 E 30 35 16 19 1011.2 1011.1 0.2
23/04:00pm 26.7 26.6 22.9 79 2.6 E 28 33 15 18 1011.0 1010.9 0.2
23/03:30pm 26.9 27.1 23.5 81 2.3 E 28 33 15 18 1011.0 1010.9 0.2
23/03:00pm 27.1 27.5 23.8 82 2.3 E 28 32 15 17 1011.0 1010.9 0.2
23/02:30pm 27.4 28.6 23.9 81 2.4 E 24 28 13 15 1011.3 1011.2 0.2
23/02:00pm 27.8 29.2 24.2 81 2.5 E 24 30 13 16 1011.2 1011.1 0.2
23/01:30pm 27.9 28.8 24.0 79 2.7 E 26 30 14 16 1011.4 1011.3 0.2
23/01:00pm 27.8 28.3 23.9 79 2.7 ESE 28 32 15 17 1011.6 1011.5 0.2
23/12:30pm 27.1 27.7 24.2 84 2.0 ESE 28 33 15 18 1011.9 1011.8 0.2
23/12:00pm 27.3 27.9 24.1 83 2.2 ESE 28 33 15 18 1012.4 1012.3 0.2
23/11:30am 27.9 29.6 24.7 83 2.2 ESE 24 30 13 16 1012.8 1012.7 0.2
23/11:00am 27.9 29.6 24.6 82 2.3 ESE 24 28 13 15 1013.0 1012.9 0.2
23/10:30am 27.9 29.0 24.4 81 2.4 ESE 26 30 14 16 1013.1 1013.0 0.2
23/10:00am 27.3 27.8 24.0 82 2.3 E 28 32 15 17 1013.2 1013.1 0.0
23/09:30am 27.2 27.7 24.0 83 2.2 E 28 32 15 17 1013.3 1013.2 0.0
23/09:00am 27.0 27.9 24.0 83 2.1 E 26 30 14 16 1013.6 1013.5 6.0
23/08:30am 26.8 28.6 24.3 86 1.7 ESE 22 26 12 14 1013.5 1013.4 6.0
23/08:00am 26.6 27.7 24.4 88 1.5 E 26 30 14 16 1013.1 1013.0 6.0
23/07:30am 26.1 27.5 24.2 89 1.3 ESE 24 28 13 15 1013.0 1012.9 6.0
23/07:00am 25.5 26.6 23.6 89 1.3 ESE 24 28 13 15 1012.8 1012.7 6.0
23/06:30am 25.1 28.3 24.4 96 0.5 ESE 15 19 8 10 1012.5 1012.4 6.0
23/06:00am 24.5 26.4 23.8 96 0.5 E 20 26 11 14 1012.4 1012.3 5.6
23/05:30am 24.6 26.6 23.9 96 0.5 E 20 32 11 17 1012.3 1012.2 2.2
23/05:00am 24.5 26.5 23.6 95 0.6 ENE 19 20 10 11 1012.1 1012.0 1.0
23/04:30am 25.0 26.6 23.8 93 0.8 ESE 22 26 12 14 1012.0 1011.9 0.8
23/04:00am 24.7 26.6 23.8 95 0.6 SE 20 24 11 13 1012.0 1011.9 0.8
23/03:30am 25.0 26.7 24.1 95 0.6 SE 22 28 12 15 1012.0 1011.9 0.6
23/03:00am 24.9 25.6 23.7 93 0.8 ESE 26 30 14 16 1012.2 1012.1 0.6
23/02:30am 24.6 24.9 23.6 94 0.7 ESE 28 33 15 18 1012.3 1012.2 0.2
23/02:00am 25.5 27.3 24.3 93 0.8 E 22 26 12 14 1012.2 1012.1 0.0
23/01:30am 25.8 28.1 24.4 92 1.0 ESE 20 26 11 14 1012.4 1012.3 0.0
23/01:00am 25.8 28.0 24.2 91 1.1 SE 20 24 11 13 1012.7 1012.6 0.0
23/12:30am 25.9 27.9 24.0 89 1.3 SE 20 24 11 13 1012.9 1012.8 0.0
23/12:00am 25.9 27.9 24.0 89 1.3 ESE 20 24 11 13 1013.0 1012.9 0.0
 
Date/Time
EST
Temp
°C
App
Temp
°C
Dew
Point
°C
Rel
Hum
%
Delta-T
°C
Wind Press
QNH
hPa
Press
MSL
hPa
Rain since
9am
mm
Dir  Spd
km/h
Gust
km/h
Spd
kts
Gust
kts
22/11:30pm 25.7 28.7 24.0 90 1.2 SE 15 17 8 9 1013.1 1013.0 0.0
22/11:00pm 25.6 27.5 23.8 90 1.2 SE 20 24 11 13 1013.2 1013.1 0.0
22/10:30pm 25.8 27.5 24.1 90 1.2 ESE 22 24 12 13 1013.3 1013.2 0.0
22/10:00pm 25.7 26.4 23.7 89 1.4 SE 26 30 14 16 1013.4 1013.3 0.0
22/09:30pm 25.7 25.8 24.0 90 1.2 SE 30 33 16 18 1013.4 1013.3 0.0
22/09:00pm 26.1 27.3 23.8 87 1.6 SE 24 28 13 15 1013.1 1013.0 0.0
22/08:30pm 26.1 28.2 24.1 89 1.4 SE 20 24 11 13 1012.9 1012.8 0.0
22/08:00pm 25.8 27.4 23.8 89 1.4 ESE 22 26 12 14 1012.7 1012.6 0.0
22/07:30pm 25.8 28.0 24.2 91 1.1 ESE 20 24 11 13 1012.6 1012.5 0.0
22/07:00pm 25.9 28.1 24.3 91 1.1 E 20 24 11 13 1012.2 1012.1 0.0
22/06:30pm 25.8 27.5 24.1 90 1.2 E 22 24 12 13 1012.1 1012.0 0.0
22/06:00pm 25.7 27.4 24.1 91 1.1 ESE 22 24 12 13 1011.8 1011.7 0.0
22/05:30pm 25.7 27.4 24.0 90 1.2 SE 22 24 12 13 1011.6 1011.5 0.0
22/05:00pm 25.9 27.6 24.0 89 1.3 SE 22 24 12 13 1011.6 1011.5 0.0
22/04:30pm 26.1 28.2 24.1 89 1.4 ESE 20 24 11 13 1011.2 1011.1 0.0
22/04:00pm 26.1 27.8 24.1 89 1.4 ESE 22 26 12 14 1011.2 1011.1 0.0
22/03:30pm 26.1 27.7 23.8 87 1.6 E 22 26 12 14 1011.3 1011.2 0.0
22/03:00pm 26.8 28.4 23.9 84 2.0 ESE 22 26 12 14 1011.1 1011.0 0.0
22/02:30pm 26.2 26.8 24.2 89 1.4 ESE 28 32 15 17 1011.3 1011.2 0.0
22/02:00pm 26.1 25.2 23.9 88 1.5 ESE 35 39 19 21 1011.4 1011.3 0.0
22/01:30pm 26.1 25.2 23.9 88 1.5 ESE 35 39 19 21 1011.7 1011.6 0.0

Other Formats:

Comma delimited format used in spreadsheet applications
http://www.bom.gov.au/fwo/IDQ60801/IDQ60801.94299.axf

JavaScript Object Notation format (JSON) in row-major order
http://www.bom.gov.au/fwo/IDQ60801/IDQ60801.94299.json